sensor_id;sensor_type;location;lat;lon;timestamp;P1;durP1;ratioP1;P2;durP2;ratioP2
23362;SDS011;11853;48.080;11.960;2023-03-03T00:02:03;44.47;;;27.70;;
23362;SDS011;11853;48.080;11.960;2023-03-03T00:04:30;41.55;;;26.13;;
23362;SDS011;11853;48.080;11.960;2023-03-03T00:06:55;41.40;;;26.42;;
23362;SDS011;11853;48.080;11.960;2023-03-03T00:09:21;44.40;;;26.92;;
23362;SDS011;11853;48.080;11.960;2023-03-03T00:11:47;42.15;;;26.48;;
23362;SDS011;11853;48.080;11.960;2023-03-03T00:14:22;40.05;;;25.75;;
23362;SDS011;11853;48.080;11.960;2023-03-03T00:16:53;38.63;;;25.38;;
23362;SDS011;11853;48.080;11.960;2023-03-03T00:19:19;41.67;;;26.73;;
23362;SDS011;11853;48.080;11.960;2023-03-03T00:21:46;43.92;;;26.08;;
23362;SDS011;11853;48.080;11.960;2023-03-03T00:26:38;43.47;;;26.77;;
23362;SDS011;11853;48.080;11.960;2023-03-03T00:29:31;39.65;;;25.85;;
23362;SDS011;11853;48.080;11.960;2023-03-03T00:34:40;43.63;;;26.23;;
23362;SDS011;11853;48.080;11.960;2023-03-03T00:37:28;41.83;;;26.90;;
23362;SDS011;11853;48.080;11.960;2023-03-03T00:39:52;45.45;;;27.48;;
23362;SDS011;11853;48.080;11.960;2023-03-03T00:42:18;42.22;;;27.00;;
23362;SDS011;11853;48.080;11.960;2023-03-03T00:44:44;41.00;;;26.10;;
23362;SDS011;11853;48.080;11.960;2023-03-03T00:52:38;45.58;;;27.92;;
23362;SDS011;11853;48.080;11.960;2023-03-03T00:55:06;41.78;;;26.17;;
23362;SDS011;11853;48.080;11.960;2023-03-03T00:57:32;42.38;;;25.77;;
23362;SDS011;11853;48.080;11.960;2023-03-03T00:59:58;41.13;;;25.42;;
23362;SDS011;11853;48.080;11.960;2023-03-03T01:02:24;42.45;;;26.67;;
23362;SDS011;11853;48.080;11.960;2023-03-03T01:04:50;40.50;;;27.02;;
23362;SDS011;11853;48.080;11.960;2023-03-03T01:07:17;43.05;;;26.75;;
23362;SDS011;11853;48.080;11.960;2023-03-03T01:09:43;40.63;;;26.73;;
23362;SDS011;11853;48.080;11.960;2023-03-03T01:12:10;42.35;;;26.88;;
23362;SDS011;11853;48.080;11.960;2023-03-03T01:14:36;39.38;;;25.55;;
23362;SDS011;11853;48.080;11.960;2023-03-03T01:17:02;41.30;;;26.80;;
23362;SDS011;11853;48.080;11.960;2023-03-03T01:19:29;42.30;;;27.48;;
23362;SDS011;11853;48.080;11.960;2023-03-03T01:21:54;41.45;;;27.15;;
23362;SDS011;11853;48.080;11.960;2023-03-03T01:24:20;40.20;;;26.02;;
23362;SDS011;11853;48.080;11.960;2023-03-03T01:26:46;40.10;;;25.88;;
23362;SDS011;11853;48.080;11.960;2023-03-03T01:29:11;43.08;;;26.50;;
23362;SDS011;11853;48.080;11.960;2023-03-03T01:31:37;41.85;;;26.52;;
23362;SDS011;11853;48.080;11.960;2023-03-03T01:34:04;38.75;;;25.50;;
23362;SDS011;11853;48.080;11.960;2023-03-03T01:36:31;40.40;;;25.92;;
23362;SDS011;11853;48.080;11.960;2023-03-03T01:38:57;43.05;;;27.10;;
23362;SDS011;11853;48.080;11.960;2023-03-03T01:41:26;41.22;;;26.50;;
23362;SDS011;11853;48.080;11.960;2023-03-03T01:43:54;45.38;;;27.17;;
23362;SDS011;11853;48.080;11.960;2023-03-03T01:48:49;43.22;;;26.27;;
23362;SDS011;11853;48.080;11.960;2023-03-03T01:51:51;45.17;;;27.70;;
23362;SDS011;11853;48.080;11.960;2023-03-03T01:54:14;43.50;;;27.33;;
23362;SDS011;11853;48.080;11.960;2023-03-03T01:56:43;41.55;;;25.90;;
23362;SDS011;11853;48.080;11.960;2023-03-03T01:59:31;38.78;;;25.50;;
23362;SDS011;11853;48.080;11.960;2023-03-03T02:01:59;41.00;;;26.80;;
23362;SDS011;11853;48.080;11.960;2023-03-03T02:04:25;45.72;;;27.77;;
23362;SDS011;11853;48.080;11.960;2023-03-03T02:06:53;42.65;;;27.35;;
23362;SDS011;11853;48.080;11.960;2023-03-03T02:09:28;44.88;;;28.83;;
23362;SDS011;11853;48.080;11.960;2023-03-03T02:12:02;47.03;;;28.45;;
23362;SDS011;11853;48.080;11.960;2023-03-03T02:14:32;45.92;;;27.55;;
23362;SDS011;11853;48.080;11.960;2023-03-03T02:16:58;45.22;;;28.73;;
23362;SDS011;11853;48.080;11.960;2023-03-03T02:19:32;45.97;;;28.85;;
23362;SDS011;11853;48.080;11.960;2023-03-03T02:22:00;43.17;;;27.95;;
23362;SDS011;11853;48.080;11.960;2023-03-03T02:24:32;46.35;;;28.98;;
23362;SDS011;11853;48.080;11.960;2023-03-03T02:27:03;43.22;;;27.98;;
23362;SDS011;11853;48.080;11.960;2023-03-03T02:29:29;44.75;;;28.52;;
23362;SDS011;11853;48.080;11.960;2023-03-03T02:31:54;46.22;;;28.80;;
23362;SDS011;11853;48.080;11.960;2023-03-03T02:34:20;44.80;;;28.77;;
23362;SDS011;11853;48.080;11.960;2023-03-03T02:36:45;49.03;;;29.38;;
23362;SDS011;11853;48.080;11.960;2023-03-03T02:44:37;49.53;;;30.48;;
23362;SDS011;11853;48.080;11.960;2023-03-03T02:47:03;46.30;;;29.30;;
23362;SDS011;11853;48.080;11.960;2023-03-03T02:49:30;48.33;;;29.88;;
23362;SDS011;11853;48.080;11.960;2023-03-03T02:51:58;50.05;;;30.63;;
23362;SDS011;11853;48.080;11.960;2023-03-03T02:54:26;44.35;;;27.70;;
23362;SDS011;11853;48.080;11.960;2023-03-03T02:56:54;42.60;;;26.85;;
23362;SDS011;11853;48.080;11.960;2023-03-03T02:59:20;44.15;;;28.10;;
23362;SDS011;11853;48.080;11.960;2023-03-03T03:01:46;46.92;;;29.65;;
23362;SDS011;11853;48.080;11.960;2023-03-03T03:04:15;48.08;;;28.85;;
23362;SDS011;11853;48.080;11.960;2023-03-03T03:06:43;45.67;;;29.15;;
23362;SDS011;11853;48.080;11.960;2023-03-03T03:09:09;44.85;;;28.25;;
23362;SDS011;11853;48.080;11.960;2023-03-03T03:11:35;47.88;;;28.90;;
23362;SDS011;11853;48.080;11.960;2023-03-03T03:14:02;49.47;;;29.55;;
23362;SDS011;11853;48.080;11.960;2023-03-03T03:16:29;47.55;;;28.48;;
23362;SDS011;11853;48.080;11.960;2023-03-03T03:18:56;49.13;;;29.90;;
23362;SDS011;11853;48.080;11.960;2023-03-03T03:21:23;47.17;;;28.67;;
23362;SDS011;11853;48.080;11.960;2023-03-03T03:23:48;44.42;;;28.83;;
23362;SDS011;11853;48.080;11.960;2023-03-03T03:26:14;43.13;;;27.75;;
23362;SDS011;11853;48.080;11.960;2023-03-03T03:28:39;44.50;;;28.08;;
23362;SDS011;11853;48.080;11.960;2023-03-03T03:31:06;44.03;;;27.38;;
23362;SDS011;11853;48.080;11.960;2023-03-03T03:33:33;41.05;;;26.75;;
23362;SDS011;11853;48.080;11.960;2023-03-03T03:35:59;42.33;;;27.15;;
23362;SDS011;11853;48.080;11.960;2023-03-03T03:38:25;46.63;;;29.42;;
23362;SDS011;11853;48.080;11.960;2023-03-03T03:40:53;45.88;;;27.05;;
23362;SDS011;11853;48.080;11.960;2023-03-03T03:43:19;44.00;;;28.17;;
23362;SDS011;11853;48.080;11.960;2023-03-03T03:45:46;46.13;;;28.88;;
23362;SDS011;11853;48.080;11.960;2023-03-03T03:48:12;43.88;;;28.20;;
23362;SDS011;11853;48.080;11.960;2023-03-03T03:50:39;41.45;;;26.48;;
23362;SDS011;11853;48.080;11.960;2023-03-03T03:53:05;42.28;;;27.30;;
23362;SDS011;11853;48.080;11.960;2023-03-03T03:55:31;44.67;;;27.52;;
23362;SDS011;11853;48.080;11.960;2023-03-03T03:57:57;46.28;;;28.33;;
23362;SDS011;11853;48.080;11.960;2023-03-03T04:00:23;41.97;;;27.05;;
23362;SDS011;11853;48.080;11.960;2023-03-03T04:02:50;41.42;;;26.88;;
23362;SDS011;11853;48.080;11.960;2023-03-03T04:05:16;42.00;;;27.80;;
23362;SDS011;11853;48.080;11.960;2023-03-03T04:07:43;42.92;;;27.80;;
23362;SDS011;11853;48.080;11.960;2023-03-03T04:10:08;46.25;;;27.63;;
23362;SDS011;11853;48.080;11.960;2023-03-03T04:12:35;44.20;;;28.65;;
23362;SDS011;11853;48.080;11.960;2023-03-03T04:15:06;40.33;;;27.15;;
23362;SDS011;11853;48.080;11.960;2023-03-03T04:17:34;41.08;;;26.52;;
23362;SDS011;11853;48.080;11.960;2023-03-03T04:20:04;42.53;;;27.55;;
23362;SDS011;11853;48.080;11.960;2023-03-03T04:22:32;39.92;;;26.25;;
23362;SDS011;11853;48.080;11.960;2023-03-03T04:25:00;43.20;;;27.08;;
23362;SDS011;11853;48.080;11.960;2023-03-03T04:27:33;40.45;;;26.88;;
23362;SDS011;11853;48.080;11.960;2023-03-03T04:30:00;39.22;;;25.40;;
23362;SDS011;11853;48.080;11.960;2023-03-03T04:32:26;41.28;;;27.10;;
23362;SDS011;11853;48.080;11.960;2023-03-03T04:34:52;41.42;;;26.70;;
23362;SDS011;11853;48.080;11.960;2023-03-03T04:37:18;40.33;;;26.33;;
23362;SDS011;11853;48.080;11.960;2023-03-03T04:39:53;38.97;;;25.60;;
23362;SDS011;11853;48.080;11.960;2023-03-03T04:42:18;41.50;;;27.02;;
23362;SDS011;11853;48.080;11.960;2023-03-03T04:44:44;39.33;;;26.92;;
23362;SDS011;11853;48.080;11.960;2023-03-03T04:47:09;42.80;;;27.67;;
23362;SDS011;11853;48.080;11.960;2023-03-03T04:49:50;42.40;;;26.60;;
23362;SDS011;11853;48.080;11.960;2023-03-03T04:52:16;42.50;;;26.73;;
23362;SDS011;11853;48.080;11.960;2023-03-03T04:54:42;41.45;;;27.23;;
23362;SDS011;11853;48.080;11.960;2023-03-03T04:57:08;42.30;;;26.65;;
23362;SDS011;11853;48.080;11.960;2023-03-03T04:59:34;44.60;;;27.38;;
23362;SDS011;11853;48.080;11.960;2023-03-03T05:02:00;42.45;;;27.73;;
23362;SDS011;11853;48.080;11.960;2023-03-03T05:04:25;42.50;;;27.20;;
23362;SDS011;11853;48.080;11.960;2023-03-03T05:06:51;42.22;;;26.85;;
23362;SDS011;11853;48.080;11.960;2023-03-03T05:09:17;39.58;;;27.33;;
23362;SDS011;11853;48.080;11.960;2023-03-03T05:11:42;44.10;;;26.98;;
23362;SDS011;11853;48.080;11.960;2023-03-03T05:14:08;42.90;;;27.67;;
23362;SDS011;11853;48.080;11.960;2023-03-03T05:16:34;42.25;;;27.92;;
23362;SDS011;11853;48.080;11.960;2023-03-03T05:18:59;47.55;;;29.95;;
23362;SDS011;11853;48.080;11.960;2023-03-03T05:21:25;46.67;;;29.20;;
23362;SDS011;11853;48.080;11.960;2023-03-03T05:23:51;45.17;;;27.23;;
23362;SDS011;11853;48.080;11.960;2023-03-03T05:26:16;44.22;;;27.48;;
23362;SDS011;11853;48.080;11.960;2023-03-03T05:28:42;46.88;;;30.08;;
23362;SDS011;11853;48.080;11.960;2023-03-03T05:31:08;46.35;;;28.70;;
23362;SDS011;11853;48.080;11.960;2023-03-03T05:33:35;45.20;;;28.40;;
23362;SDS011;11853;48.080;11.960;2023-03-03T05:36:01;43.15;;;28.13;;
23362;SDS011;11853;48.080;11.960;2023-03-03T05:38:27;46.05;;;29.27;;
23362;SDS011;11853;48.080;11.960;2023-03-03T05:40:52;46.30;;;27.38;;
23362;SDS011;11853;48.080;11.960;2023-03-03T05:43:18;44.80;;;29.45;;
23362;SDS011;11853;48.080;11.960;2023-03-03T05:45:44;44.42;;;28.98;;
23362;SDS011;11853;48.080;11.960;2023-03-03T05:48:10;44.78;;;28.30;;
23362;SDS011;11853;48.080;11.960;2023-03-03T05:50:36;47.47;;;29.95;;
23362;SDS011;11853;48.080;11.960;2023-03-03T05:53:02;47.50;;;29.92;;
23362;SDS011;11853;48.080;11.960;2023-03-03T05:55:28;45.85;;;29.20;;
23362;SDS011;11853;48.080;11.960;2023-03-03T05:57:54;40.47;;;27.95;;
23362;SDS011;11853;48.080;11.960;2023-03-03T06:00:20;47.83;;;29.55;;
23362;SDS011;11853;48.080;11.960;2023-03-03T06:02:46;45.88;;;28.95;;
23362;SDS011;11853;48.080;11.960;2023-03-03T06:05:12;49.17;;;30.05;;
23362;SDS011;11853;48.080;11.960;2023-03-03T06:07:38;44.75;;;29.40;;
23362;SDS011;11853;48.080;11.960;2023-03-03T06:10:04;49.05;;;29.23;;
23362;SDS011;11853;48.080;11.960;2023-03-03T06:12:31;46.90;;;28.77;;
23362;SDS011;11853;48.080;11.960;2023-03-03T06:14:56;45.75;;;29.27;;
23362;SDS011;11853;48.080;11.960;2023-03-03T06:17:22;46.30;;;28.60;;
23362;SDS011;11853;48.080;11.960;2023-03-03T06:19:48;43.13;;;28.30;;
23362;SDS011;11853;48.080;11.960;2023-03-03T06:22:13;42.90;;;28.90;;
23362;SDS011;11853;48.080;11.960;2023-03-03T06:24:39;44.58;;;28.05;;
23362;SDS011;11853;48.080;11.960;2023-03-03T06:27:05;47.10;;;29.48;;
23362;SDS011;11853;48.080;11.960;2023-03-03T06:29:30;48.88;;;29.92;;
23362;SDS011;11853;48.080;11.960;2023-03-03T06:31:56;44.53;;;29.05;;
23362;SDS011;11853;48.080;11.960;2023-03-03T06:34:22;44.85;;;27.45;;
23362;SDS011;11853;48.080;11.960;2023-03-03T06:36:49;46.15;;;29.67;;
23362;SDS011;11853;48.080;11.960;2023-03-03T06:39:14;45.80;;;28.83;;
23362;SDS011;11853;48.080;11.960;2023-03-03T06:41:40;43.78;;;29.08;;
23362;SDS011;11853;48.080;11.960;2023-03-03T06:44:06;48.08;;;28.98;;
23362;SDS011;11853;48.080;11.960;2023-03-03T06:46:33;47.25;;;28.90;;
23362;SDS011;11853;48.080;11.960;2023-03-03T06:49:01;46.03;;;28.83;;
23362;SDS011;11853;48.080;11.960;2023-03-03T06:51:31;48.67;;;30.00;;
23362;SDS011;11853;48.080;11.960;2023-03-03T06:53:58;46.47;;;29.80;;
23362;SDS011;11853;48.080;11.960;2023-03-03T06:56:27;46.63;;;29.70;;
23362;SDS011;11853;48.080;11.960;2023-03-03T06:58:55;43.25;;;28.13;;
23362;SDS011;11853;48.080;11.960;2023-03-03T07:01:24;48.00;;;30.17;;
23362;SDS011;11853;48.080;11.960;2023-03-03T07:03:51;47.00;;;29.13;;
23362;SDS011;11853;48.080;11.960;2023-03-03T07:06:19;46.75;;;29.80;;
23362;SDS011;11853;48.080;11.960;2023-03-03T07:08:46;45.17;;;29.88;;
23362;SDS011;11853;48.080;11.960;2023-03-03T07:11:14;45.58;;;28.63;;
23362;SDS011;11853;48.080;11.960;2023-03-03T07:13:45;46.47;;;28.42;;
23362;SDS011;11853;48.080;11.960;2023-03-03T07:16:13;45.10;;;28.98;;
23362;SDS011;11853;48.080;11.960;2023-03-03T07:18:51;43.95;;;27.95;;
23362;SDS011;11853;48.080;11.960;2023-03-03T07:21:33;44.63;;;28.75;;
23362;SDS011;11853;48.080;11.960;2023-03-03T07:29:51;48.55;;;29.83;;
23362;SDS011;11853;48.080;11.960;2023-03-03T07:32:40;47.20;;;30.65;;
23362;SDS011;11853;48.080;11.960;2023-03-03T07:35:20;45.10;;;29.25;;
23362;SDS011;11853;48.080;11.960;2023-03-03T07:37:52;50.17;;;30.60;;
23362;SDS011;11853;48.080;11.960;2023-03-03T07:40:37;49.08;;;32.03;;
23362;SDS011;11853;48.080;11.960;2023-03-03T07:45:53;44.67;;;29.25;;
23362;SDS011;11853;48.080;11.960;2023-03-03T07:48:29;47.90;;;29.50;;
23362;SDS011;11853;48.080;11.960;2023-03-03T07:51:01;49.97;;;31.10;;
23362;SDS011;11853;48.080;11.960;2023-03-03T07:53:30;52.22;;;31.42;;
23362;SDS011;11853;48.080;11.960;2023-03-03T07:55:59;46.22;;;30.80;;
23362;SDS011;11853;48.080;11.960;2023-03-03T07:58:36;46.65;;;30.98;;
23362;SDS011;11853;48.080;11.960;2023-03-03T08:01:25;48.65;;;29.60;;
23362;SDS011;11853;48.080;11.960;2023-03-03T08:04:08;48.50;;;31.20;;
23362;SDS011;11853;48.080;11.960;2023-03-03T08:06:43;50.55;;;31.70;;
23362;SDS011;11853;48.080;11.960;2023-03-03T08:14:34;48.92;;;32.28;;
23362;SDS011;11853;48.080;11.960;2023-03-03T08:17:01;47.20;;;30.20;;
23362;SDS011;11853;48.080;11.960;2023-03-03T08:19:31;50.38;;;31.90;;
23362;SDS011;11853;48.080;11.960;2023-03-03T08:22:01;45.47;;;30.75;;
23362;SDS011;11853;48.080;11.960;2023-03-03T08:24:38;47.90;;;30.40;;
23362;SDS011;11853;48.080;11.960;2023-03-03T08:27:03;46.22;;;30.10;;
23362;SDS011;11853;48.080;11.960;2023-03-03T08:29:29;49.55;;;29.95;;
23362;SDS011;11853;48.080;11.960;2023-03-03T08:31:55;46.17;;;31.27;;
23362;SDS011;11853;48.080;11.960;2023-03-03T08:34:20;49.05;;;31.90;;
23362;SDS011;11853;48.080;11.960;2023-03-03T08:36:46;53.35;;;32.20;;
23362;SDS011;11853;48.080;11.960;2023-03-03T08:39:12;48.25;;;29.85;;
23362;SDS011;11853;48.080;11.960;2023-03-03T08:41:37;56.63;;;34.58;;
23362;SDS011;11853;48.080;11.960;2023-03-03T08:44:07;48.83;;;30.85;;
23362;SDS011;11853;48.080;11.960;2023-03-03T08:46:33;49.20;;;30.98;;
23362;SDS011;11853;48.080;11.960;2023-03-03T08:48:59;49.03;;;30.95;;
23362;SDS011;11853;48.080;11.960;2023-03-03T08:51:25;57.45;;;34.63;;
23362;SDS011;11853;48.080;11.960;2023-03-03T08:53:51;52.25;;;34.55;;
23362;SDS011;11853;48.080;11.960;2023-03-03T08:56:16;49.83;;;31.80;;
23362;SDS011;11853;48.080;11.960;2023-03-03T08:58:42;48.50;;;31.70;;
23362;SDS011;11853;48.080;11.960;2023-03-03T09:01:12;52.15;;;31.42;;
23362;SDS011;11853;48.080;11.960;2023-03-03T09:03:40;46.00;;;30.63;;
23362;SDS011;11853;48.080;11.960;2023-03-03T09:06:07;48.28;;;31.15;;
23362;SDS011;11853;48.080;11.960;2023-03-03T09:08:33;50.47;;;32.22;;
23362;SDS011;11853;48.080;11.960;2023-03-03T09:10:59;50.58;;;33.72;;
23362;SDS011;11853;48.080;11.960;2023-03-03T09:13:24;52.67;;;33.22;;
23362;SDS011;11853;48.080;11.960;2023-03-03T09:15:53;52.05;;;34.10;;
23362;SDS011;11853;48.080;11.960;2023-03-03T09:18:24;50.47;;;32.05;;
23362;SDS011;11853;48.080;11.960;2023-03-03T09:21:21;51.95;;;33.78;;
23362;SDS011;11853;48.080;11.960;2023-03-03T09:23:54;50.63;;;33.10;;
23362;SDS011;11853;48.080;11.960;2023-03-03T09:26:23;52.80;;;33.53;;
23362;SDS011;11853;48.080;11.960;2023-03-03T09:28:55;53.17;;;34.22;;
23362;SDS011;11853;48.080;11.960;2023-03-03T09:34:20;52.25;;;34.08;;
23362;SDS011;11853;48.080;11.960;2023-03-03T09:36:50;48.38;;;32.10;;
23362;SDS011;11853;48.080;11.960;2023-03-03T09:39:19;57.47;;;36.13;;
23362;SDS011;11853;48.080;11.960;2023-03-03T10:07:51;60.63;;;36.50;;
23362;SDS011;11853;48.080;11.960;2023-03-03T10:18:42;52.53;;;33.58;;
23362;SDS011;11853;48.080;11.960;2023-03-03T10:24:21;52.83;;;35.95;;
23362;SDS011;11853;48.080;11.960;2023-03-03T10:33:07;51.63;;;33.25;;
23362;SDS011;11853;48.080;11.960;2023-03-03T10:44:15;56.03;;;35.22;;
23362;SDS011;11853;48.080;11.960;2023-03-03T10:47:15;48.72;;;34.17;;
23362;SDS011;11853;48.080;11.960;2023-03-03T10:52:43;56.33;;;35.78;;
23362;SDS011;11853;48.080;11.960;2023-03-03T10:55:19;56.30;;;34.05;;
23362;SDS011;11853;48.080;11.960;2023-03-03T11:00:36;52.72;;;35.38;;
23362;SDS011;11853;48.080;11.960;2023-03-03T11:08:57;57.78;;;36.78;;
23362;SDS011;11853;48.080;11.960;2023-03-03T11:14:25;55.47;;;35.45;;
23362;SDS011;11853;48.080;11.960;2023-03-03T11:16:55;52.30;;;34.35;;
23362;SDS011;11853;48.080;11.960;2023-03-03T11:22:46;51.55;;;33.38;;
23362;SDS011;11853;48.080;11.960;2023-03-03T11:27:58;50.78;;;34.33;;
23362;SDS011;11853;48.080;11.960;2023-03-03T11:33:07;55.28;;;35.25;;
23362;SDS011;11853;48.080;11.960;2023-03-03T11:38:35;51.75;;;34.67;;
23362;SDS011;11853;48.080;11.960;2023-03-03T11:44:31;55.10;;;34.85;;
23362;SDS011;11853;48.080;11.960;2023-03-03T11:55:36;50.95;;;35.40;;
23362;SDS011;11853;48.080;11.960;2023-03-03T11:58:15;56.53;;;37.50;;
23362;SDS011;11853;48.080;11.960;2023-03-03T12:00:46;56.38;;;37.60;;
23362;SDS011;11853;48.080;11.960;2023-03-03T12:06:05;55.72;;;36.75;;
23362;SDS011;11853;48.080;11.960;2023-03-03T12:09:02;56.13;;;36.60;;
23362;SDS011;11853;48.080;11.960;2023-03-03T12:11:48;55.13;;;36.83;;
23362;SDS011;11853;48.080;11.960;2023-03-03T12:25:53;55.67;;;36.90;;
23362;SDS011;11853;48.080;11.960;2023-03-03T12:28:34;55.00;;;36.85;;
23362;SDS011;11853;48.080;11.960;2023-03-03T12:31:27;57.88;;;36.63;;
23362;SDS011;11853;48.080;11.960;2023-03-03T12:39:36;53.28;;;35.33;;
23362;SDS011;11853;48.080;11.960;2023-03-03T12:44:39;54.10;;;36.53;;
23362;SDS011;11853;48.080;11.960;2023-03-03T12:47:28;56.60;;;39.53;;
23362;SDS011;11853;48.080;11.960;2023-03-03T12:50:13;54.95;;;36.45;;
23362;SDS011;11853;48.080;11.960;2023-03-03T12:55:52;52.92;;;36.70;;
23362;SDS011;11853;48.080;11.960;2023-03-03T13:01:35;52.55;;;34.70;;
23362;SDS011;11853;48.080;11.960;2023-03-03T13:09:57;53.35;;;34.60;;
23362;SDS011;11853;48.080;11.960;2023-03-03T13:17:48;52.92;;;36.22;;
23362;SDS011;11853;48.080;11.960;2023-03-03T13:23:04;47.35;;;33.25;;
23362;SDS011;11853;48.080;11.960;2023-03-03T13:28:07;53.17;;;34.78;;
23362;SDS011;11853;48.080;11.960;2023-03-03T13:30:41;48.90;;;32.65;;
23362;SDS011;11853;48.080;11.960;2023-03-03T13:38:28;52.78;;;37.45;;
23362;SDS011;11853;48.080;11.960;2023-03-03T13:41:00;55.47;;;37.53;;
23362;SDS011;11853;48.080;11.960;2023-03-03T13:52:22;49.95;;;32.95;;
23362;SDS011;11853;48.080;11.960;2023-03-03T13:58:00;52.90;;;35.67;;
23362;SDS011;11853;48.080;11.960;2023-03-03T14:00:48;57.60;;;37.38;;
23362;SDS011;11853;48.080;11.960;2023-03-03T14:03:46;50.58;;;35.80;;
23362;SDS011;11853;48.080;11.960;2023-03-03T14:06:22;53.42;;;33.95;;
23362;SDS011;11853;48.080;11.960;2023-03-03T14:12:05;50.75;;;34.33;;
23362;SDS011;11853;48.080;11.960;2023-03-03T14:14:37;53.35;;;35.17;;
23362;SDS011;11853;48.080;11.960;2023-03-03T14:17:41;52.10;;;33.65;;
23362;SDS011;11853;48.080;11.960;2023-03-03T14:25:52;53.60;;;37.88;;
23362;SDS011;11853;48.080;11.960;2023-03-03T14:28:21;50.58;;;33.38;;
23362;SDS011;11853;48.080;11.960;2023-03-03T14:30:49;51.30;;;35.72;;
23362;SDS011;11853;48.080;11.960;2023-03-03T14:33:20;52.90;;;37.28;;
23362;SDS011;11853;48.080;11.960;2023-03-03T14:35:49;54.60;;;36.83;;
23362;SDS011;11853;48.080;11.960;2023-03-03T14:38:22;47.67;;;33.22;;
23362;SDS011;11853;48.080;11.960;2023-03-03T14:41:12;58.03;;;36.67;;
23362;SDS011;11853;48.080;11.960;2023-03-03T14:43:44;51.45;;;36.45;;
23362;SDS011;11853;48.080;11.960;2023-03-03T14:52:19;50.50;;;35.90;;
23362;SDS011;11853;48.080;11.960;2023-03-03T14:54:49;49.60;;;33.70;;
23362;SDS011;11853;48.080;11.960;2023-03-03T14:57:37;54.13;;;34.85;;
23362;SDS011;11853;48.080;11.960;2023-03-03T15:03:01;48.40;;;33.80;;
23362;SDS011;11853;48.080;11.960;2023-03-03T15:05:32;49.50;;;33.45;;
23362;SDS011;11853;48.080;11.960;2023-03-03T15:15:50;54.80;;;35.65;;
23362;SDS011;11853;48.080;11.960;2023-03-03T15:18:25;43.85;;;32.17;;
23362;SDS011;11853;48.080;11.960;2023-03-03T15:21:08;50.35;;;34.10;;
23362;SDS011;11853;48.080;11.960;2023-03-03T15:26:26;49.65;;;33.10;;
23362;SDS011;11853;48.080;11.960;2023-03-03T15:34:36;48.65;;;31.98;;
23362;SDS011;11853;48.080;11.960;2023-03-03T15:37:14;44.88;;;31.58;;
23362;SDS011;11853;48.080;11.960;2023-03-03T15:48:32;48.15;;;31.40;;
23362;SDS011;11853;48.080;11.960;2023-03-03T15:56:49;49.13;;;32.58;;
23362;SDS011;11853;48.080;11.960;2023-03-03T16:02:27;45.85;;;33.33;;
23362;SDS011;11853;48.080;11.960;2023-03-03T16:05:21;42.38;;;30.60;;
23362;SDS011;11853;48.080;11.960;2023-03-03T16:07:54;41.23;;;29.90;;
23362;SDS011;11853;48.080;11.960;2023-03-03T16:10:49;46.80;;;30.95;;
23362;SDS011;11853;48.080;11.960;2023-03-03T16:16:42;45.78;;;30.15;;
23362;SDS011;11853;48.080;11.960;2023-03-03T16:27:27;44.88;;;31.58;;
23362;SDS011;11853;48.080;11.960;2023-03-03T16:32:55;44.40;;;30.70;;
23362;SDS011;11853;48.080;11.960;2023-03-03T16:35:32;43.10;;;31.45;;
23362;SDS011;11853;48.080;11.960;2023-03-03T16:38:07;41.13;;;27.58;;
23362;SDS011;11853;48.080;11.960;2023-03-03T16:40:44;43.15;;;29.58;;
23362;SDS011;11853;48.080;11.960;2023-03-03T16:46:14;41.05;;;27.95;;
23362;SDS011;11853;48.080;11.960;2023-03-03T16:48:51;43.90;;;29.52;;
23362;SDS011;11853;48.080;11.960;2023-03-03T16:53:52;41.47;;;28.55;;
23362;SDS011;11853;48.080;11.960;2023-03-03T17:01:59;39.10;;;27.55;;
23362;SDS011;11853;48.080;11.960;2023-03-03T17:10:31;42.42;;;29.33;;
23362;SDS011;11853;48.080;11.960;2023-03-03T17:13:06;38.60;;;28.13;;
23362;SDS011;11853;48.080;11.960;2023-03-03T17:24:02;51.30;;;34.50;;
23362;SDS011;11853;48.080;11.960;2023-03-03T17:37:46;47.60;;;32.00;;
23362;SDS011;11853;48.080;11.960;2023-03-03T17:43:22;48.83;;;33.35;;
23362;SDS011;11853;48.080;11.960;2023-03-03T17:45:54;54.50;;;36.03;;
23362;SDS011;11853;48.080;11.960;2023-03-03T18:08:08;82.32;;;51.90;;
23362;SDS011;11853;48.080;11.960;2023-03-03T18:13:47;68.95;;;46.67;;
23362;SDS011;11853;48.080;11.960;2023-03-03T18:19:16;66.43;;;43.58;;
23362;SDS011;11853;48.080;11.960;2023-03-03T18:22:05;65.07;;;42.25;;
23362;SDS011;11853;48.080;11.960;2023-03-03T18:35:34;53.58;;;35.53;;
23362;SDS011;11853;48.080;11.960;2023-03-03T18:41:03;58.10;;;37.45;;
23362;SDS011;11853;48.080;11.960;2023-03-03T18:46:04;57.80;;;36.33;;
23362;SDS011;11853;48.080;11.960;2023-03-03T18:56:41;60.65;;;40.45;;
23362;SDS011;11853;48.080;11.960;2023-03-03T18:59:09;62.08;;;42.03;;
23362;SDS011;11853;48.080;11.960;2023-03-03T19:02:38;64.97;;;42.20;;
23362;SDS011;11853;48.080;11.960;2023-03-03T19:04:54;59.88;;;40.53;;
23362;SDS011;11853;48.080;11.960;2023-03-03T19:12:55;59.30;;;41.63;;
23362;SDS011;11853;48.080;11.960;2023-03-03T19:17:59;60.58;;;41.55;;
23362;SDS011;11853;48.080;11.960;2023-03-03T19:20:58;62.72;;;43.83;;
23362;SDS011;11853;48.080;11.960;2023-03-03T19:23:33;66.07;;;45.63;;
23362;SDS011;11853;48.080;11.960;2023-03-03T19:34:36;68.70;;;46.55;;
23362;SDS011;11853;48.080;11.960;2023-03-03T19:37:26;75.03;;;49.70;;
23362;SDS011;11853;48.080;11.960;2023-03-03T19:42:44;73.38;;;46.38;;
23362;SDS011;11853;48.080;11.960;2023-03-03T19:47:53;60.65;;;39.70;;
23362;SDS011;11853;48.080;11.960;2023-03-03T19:50:39;66.10;;;42.10;;
23362;SDS011;11853;48.080;11.960;2023-03-03T20:08:08;71.82;;;49.22;;
23362;SDS011;11853;48.080;11.960;2023-03-03T20:10:51;75.15;;;50.90;;
23362;SDS011;11853;48.080;11.960;2023-03-03T20:16:47;69.93;;;47.95;;
23362;SDS011;11853;48.080;11.960;2023-03-03T20:33:18;65.35;;;44.40;;
23362;SDS011;11853;48.080;11.960;2023-03-03T20:52:02;62.28;;;40.80;;
23362;SDS011;11853;48.080;11.960;2023-03-03T20:57:13;65.65;;;42.97;;
23362;SDS011;11853;48.080;11.960;2023-03-03T21:00:03;59.83;;;40.17;;
23362;SDS011;11853;48.080;11.960;2023-03-03T21:02:36;61.88;;;40.10;;
23362;SDS011;11853;48.080;11.960;2023-03-03T21:05:24;61.53;;;38.78;;
23362;SDS011;11853;48.080;11.960;2023-03-03T21:10:20;70.82;;;43.72;;
23362;SDS011;11853;48.080;11.960;2023-03-03T21:12:49;63.80;;;41.70;;
23362;SDS011;11853;48.080;11.960;2023-03-03T21:15:23;59.50;;;39.42;;
23362;SDS011;11853;48.080;11.960;2023-03-03T21:17:51;66.05;;;42.13;;
23362;SDS011;11853;48.080;11.960;2023-03-03T21:20:29;66.88;;;42.33;;
23362;SDS011;11853;48.080;11.960;2023-03-03T21:22:57;71.15;;;44.38;;
23362;SDS011;11853;48.080;11.960;2023-03-03T21:28:15;63.95;;;40.50;;
23362;SDS011;11853;48.080;11.960;2023-03-03T21:36:24;60.03;;;39.13;;
23362;SDS011;11853;48.080;11.960;2023-03-03T21:39:29;59.15;;;40.33;;